createdAt,value
2019-02-12T00:00:18.468Z,3.35
2019-02-12T00:02:49.589Z,3.33
2019-02-12T00:05:21.287Z,3.25
2019-02-12T00:07:53.166Z,3.19
2019-02-12T00:10:23.897Z,3.28
2019-02-12T00:12:55.640Z,3.37
2019-02-12T00:15:26.270Z,3.33
2019-02-12T00:17:57.546Z,3.31
2019-02-12T00:20:28.455Z,3.41
2019-02-12T00:22:59.741Z,3.19
2019-02-12T00:25:31.472Z,3.20
2019-02-12T00:28:03.290Z,3.24
2019-02-12T00:30:34.467Z,3.29
2019-02-12T00:33:05.213Z,3.38
2019-02-12T00:35:36.521Z,3.45
2019-02-12T00:38:07.923Z,3.40
2019-02-12T00:40:39.053Z,3.37
2019-02-12T00:43:10.800Z,3.32
2019-02-12T00:45:41.757Z,3.30
2019-02-12T00:48:12.482Z,3.44
2019-02-12T00:50:43.817Z,3.46
2019-02-12T00:53:15.073Z,3.45
2019-02-12T00:55:46.235Z,3.30
2019-02-12T00:58:17.237Z,3.29
2019-02-12T01:00:48.201Z,3.24
2019-02-12T01:03:19.652Z,3.12
2019-02-12T01:05:54.118Z,3.06
2019-02-12T01:08:25.498Z,3.03
2019-02-12T01:10:56.699Z,2.99
2019-02-12T01:13:27.972Z,2.97
2019-02-12T01:16:00.047Z,3.00
2019-02-12T01:18:34.050Z,2.89
2019-02-12T01:22:14.176Z,2.90
2019-02-12T01:24:48.517Z,2.83
2019-02-12T01:27:28.083Z,2.86
2019-02-12T01:29:59.502Z,3.00
2019-02-12T01:32:30.767Z,2.93
2019-02-12T01:35:02.023Z,2.99
2019-02-12T01:37:33.276Z,2.91
2019-02-12T01:40:04.957Z,2.97
2019-02-12T01:42:35.969Z,2.99
2019-02-12T01:45:07.341Z,3.08
2019-02-12T01:47:38.659Z,2.95
2019-02-12T01:50:11.984Z,2.93
2019-02-12T01:52:42.663Z,2.97
2019-02-12T01:55:14.096Z,2.93
2019-02-12T01:57:45.371Z,3.01
2019-02-12T02:00:16.973Z,3.00
2019-02-12T03:01:53.799Z,2.65
2019-02-12T03:04:25.871Z,2.75
2019-02-12T03:06:57.339Z,2.86
2019-02-12T03:09:28.843Z,2.86
2019-02-12T03:12:00.494Z,2.85
2019-02-12T03:14:31.901Z,2.88
2019-02-12T03:17:03.596Z,2.96
2019-02-12T03:19:34.992Z,3.04
2019-02-12T03:22:06.253Z,3.12
2019-02-12T03:24:38.316Z,3.15
2019-02-12T03:27:10.364Z,3.14
2019-02-12T03:29:42.250Z,3.17
2019-02-12T03:32:13.571Z,3.22
2019-02-12T03:34:44.590Z,3.18
2019-02-12T03:37:15.688Z,3.08
2019-02-12T03:39:47.322Z,3.03
2019-02-12T03:42:19.494Z,3.03
2019-02-12T03:44:50.735Z,3.06
2019-02-12T03:47:22.113Z,3.13
2019-02-12T03:49:54.031Z,3.08
2019-02-12T03:52:24.667Z,3.07
2019-02-12T03:54:56.286Z,3.16
2019-02-12T03:57:27.985Z,3.17
2019-02-12T04:00:01.094Z,3.26
2019-02-12T04:02:32.788Z,3.18
2019-02-12T04:05:03.198Z,3.20
2019-02-12T04:07:33.936Z,3.20
2019-02-12T04:10:05.299Z,3.15
2019-02-12T04:12:36.665Z,3.13
2019-02-12T04:15:08.019Z,3.08
2019-02-12T04:17:38.971Z,3.02
2019-02-12T04:20:10.141Z,2.99
2019-02-12T04:22:41.163Z,3.04
2019-02-12T04:25:12.554Z,2.99
2019-02-12T04:27:43.881Z,2.96
2019-02-12T04:30:14.956Z,2.94
2019-02-12T04:32:46.574Z,2.95
2019-02-12T04:35:17.555Z,2.89
2019-02-12T04:37:49.253Z,2.85
2019-02-12T04:40:20.322Z,2.84
2019-02-12T04:42:51.626Z,2.87
2019-02-12T04:45:22.991Z,2.78
2019-02-12T04:47:54.722Z,2.71
2019-02-12T04:50:25.820Z,2.71
2019-02-12T04:52:56.936Z,2.65
2019-02-12T04:55:27.971Z,2.77
2019-02-12T04:57:59.936Z,2.72
2019-02-12T05:00:31.071Z,2.78
2019-02-12T05:03:02.842Z,2.85
2019-02-12T05:05:34.695Z,2.76
2019-02-12T05:08:06.435Z,2.61
2019-02-12T05:10:43.213Z,2.51
2019-02-12T05:13:14.621Z,2.49
2019-02-12T05:15:46.253Z,2.45
2019-02-12T05:18:17.929Z,2.35
2019-02-12T05:21:05.829Z,2.33
2019-02-12T05:23:37.176Z,2.28
2019-02-12T05:26:08.199Z,2.28
2019-02-12T05:28:39.355Z,2.18
2019-02-12T05:31:12.484Z,2.16
2019-02-12T05:34:04.080Z,2.14
2019-02-12T05:36:35.605Z,2.07
2019-02-12T05:39:08.396Z,2.07
2019-02-12T05:41:39.464Z,2.05
2019-02-12T05:44:10.174Z,1.98
2019-02-12T05:46:42.634Z,1.93
2019-02-12T05:49:14.365Z,2.01
2019-02-12T05:51:44.961Z,2.25
2019-02-12T05:54:15.633Z,2.24
2019-02-12T05:56:47.335Z,2.22
2019-02-12T05:59:18.583Z,2.25
2019-02-12T06:01:51.646Z,2.33
2019-02-12T06:04:22.697Z,2.37
2019-02-12T06:06:53.977Z,2.35
2019-02-12T06:09:43.419Z,2.29
2019-02-12T06:12:19.396Z,2.28
2019-02-12T06:14:51.018Z,2.23
2019-02-12T06:17:21.711Z,2.25
2019-02-12T06:20:01.550Z,2.35
2019-02-12T06:22:32.560Z,2.32
2019-02-12T06:25:03.270Z,2.31
2019-02-12T06:27:47.480Z,2.33
2019-02-12T06:30:18.750Z,2.31
2019-02-12T06:32:50.137Z,2.32
2019-02-12T06:35:21.007Z,2.28
2019-02-12T06:38:20.959Z,2.28
2019-02-12T06:40:52.559Z,2.28
2019-02-12T06:43:24.217Z,2.29
2019-02-12T06:46:01.391Z,2.19
2019-02-12T06:48:42.326Z,2.13
2019-02-12T06:51:13.987Z,2.18
2019-02-12T06:53:44.976Z,2.25
2019-02-12T06:56:15.885Z,2.16
2019-02-12T06:58:47.577Z,2.09
2019-02-12T07:01:18.998Z,2.21
2019-02-12T07:04:02.825Z,2.26
2019-02-12T07:07:26.173Z,2.32
2019-02-12T07:10:18.475Z,2.56
2019-02-12T07:13:30.785Z,2.58
2019-02-12T07:16:37.980Z,2.53
2019-02-12T07:20:10.243Z,2.58
2019-02-12T07:23:46.898Z,2.54
2019-02-12T07:27:39.459Z,2.63
2019-02-12T07:31:15.300Z,2.76
2019-02-12T07:34:41.726Z,2.78
2019-02-12T07:38:11.558Z,2.66
2019-02-12T07:41:40.252Z,2.79
2019-02-12T07:44:51.718Z,2.92
2019-02-12T07:48:03.268Z,3.05
2019-02-12T07:51:42.480Z,3.13
2019-02-12T07:55:02.690Z,3.20
2019-02-12T07:58:29.536Z,3.30
2019-02-12T08:01:56.997Z,3.35
2019-02-12T08:05:32.668Z,3.40
2019-02-12T08:08:58.184Z,3.64
2019-02-12T08:12:21.795Z,3.75
2019-02-12T08:15:52.028Z,3.77
2019-02-12T08:19:07.647Z,4.04
2019-02-12T08:22:43.860Z,4.25
2019-02-12T08:26:12.269Z,4.38
2019-02-12T08:29:22.466Z,4.34
2019-02-12T08:32:50.727Z,4.28
2019-02-12T08:36:15.852Z,4.36
2019-02-12T08:39:30.805Z,4.57
2019-02-12T08:42:42.119Z,4.67
2019-02-12T08:46:03.321Z,4.90
2019-02-12T08:49:45.317Z,4.56
2019-02-12T08:53:14.901Z,5.01
2019-02-12T08:56:20.809Z,5.79
2019-02-12T08:59:53.789Z,6.05
2019-02-12T09:03:48.385Z,6.26
2019-02-12T09:07:25.777Z,6.21
2019-02-12T09:10:54.607Z,6.36
2019-02-12T09:14:11.803Z,5.94
2019-02-12T09:17:36.728Z,5.83
2019-02-12T09:21:10.950Z,5.55
2019-02-12T09:24:15.363Z,5.83
2019-02-12T09:27:53.075Z,5.94
2019-02-12T09:31:26.558Z,5.86
2019-02-12T09:34:37.890Z,5.64
2019-02-12T09:38:22.814Z,5.68
2019-02-12T09:41:35.953Z,5.66
2019-02-12T09:45:21.435Z,5.51
2019-02-12T09:48:14.691Z,5.68
2019-02-12T09:51:54.258Z,5.44
2019-02-12T09:55:19.273Z,5.95
2019-02-12T09:59:04.960Z,6.11
2019-02-12T10:02:35.060Z,6.67
2019-02-12T10:05:52.194Z,7.82
2019-02-12T10:09:18.541Z,8.52
2019-02-12T10:12:42.573Z,8.42
2019-02-12T10:15:58.909Z,9.14
2019-02-12T10:19:34.787Z,8.06
2019-02-12T10:23:06.184Z,9.42
2019-02-12T10:26:02.525Z,9.56
2019-02-12T10:29:33.280Z,9.30
2019-02-12T10:32:08.407Z,10.54
2019-02-12T10:34:35.012Z,10.76
2019-02-12T10:37:06.131Z,8.47
2019-02-12T10:39:38.467Z,8.24
2019-02-12T10:42:09.551Z,7.79
2019-02-12T10:44:40.960Z,8.10
2019-02-12T10:47:12.833Z,7.35
2019-02-12T10:49:44.104Z,7.44
2019-02-12T10:52:15.126Z,7.84
2019-02-12T10:54:46.712Z,8.52
2019-02-12T10:57:18.096Z,8.55
2019-02-12T10:59:49.116Z,9.29
2019-02-12T11:02:21.061Z,9.41
2019-02-12T11:04:54.248Z,10.16
2019-02-12T11:07:31.099Z,10.06
2019-02-12T11:10:10.334Z,9.09
2019-02-12T11:12:41.984Z,7.53
2019-02-12T11:15:13.618Z,7.86
2019-02-12T11:17:47.921Z,8.43
2019-02-12T11:20:27.330Z,8.06
2019-02-12T11:22:59.311Z,8.00
2019-02-12T11:25:30.295Z,8.05
2019-02-12T11:28:01.883Z,7.39
2019-02-12T11:30:33.244Z,7.03
2019-02-12T11:33:03.801Z,6.93
2019-02-12T11:35:36.916Z,6.80
2019-02-12T11:38:07.980Z,6.11
2019-02-12T11:40:39.420Z,6.21
2019-02-12T11:43:10.399Z,6.56
2019-02-12T11:45:41.544Z,7.14
2019-02-12T11:48:13.266Z,7.05
2019-02-12T11:50:44.148Z,7.41
2019-02-12T11:53:15.011Z,7.23
2019-02-12T11:55:46.364Z,7.65
2019-02-12T11:58:17.383Z,7.94
2019-02-12T12:00:55.953Z,7.57
2019-02-12T12:03:27.708Z,8.41
2019-02-12T12:05:59.072Z,7.65
2019-02-12T12:08:30.124Z,8.22
2019-02-12T12:11:01.821Z,9.20
2019-02-12T12:13:33.500Z,8.38
2019-02-12T12:16:04.870Z,8.57
2019-02-12T12:18:35.465Z,8.91
2019-02-12T12:21:06.103Z,9.36
2019-02-12T12:23:37.778Z,9.69
2019-02-12T12:26:08.920Z,11.84
2019-02-12T12:28:39.935Z,10.62
2019-02-12T12:31:11.629Z,10.95
2019-02-12T12:33:42.647Z,11.71
2019-02-12T12:36:14.028Z,10.98
2019-02-12T12:38:45.744Z,9.42
2019-02-12T12:41:17.067Z,8.49
2019-02-12T12:43:48.348Z,8.31
2019-02-12T12:46:19.296Z,8.90
2019-02-12T12:48:50.626Z,8.45
2019-02-12T12:51:21.926Z,8.56
2019-02-12T12:53:53.324Z,8.41
2019-02-12T12:56:25.237Z,8.13
2019-02-12T12:58:55.884Z,8.01
2019-02-12T13:01:26.848Z,7.72
2019-02-12T13:03:58.114Z,7.50
2019-02-12T13:06:39.089Z,7.74
2019-02-12T13:09:10.490Z,7.45
2019-02-12T13:11:41.488Z,7.39
2019-02-12T13:14:13.265Z,7.30
2019-02-12T13:16:56.543Z,7.50
2019-02-12T13:19:31.026Z,8.32
2019-02-12T13:22:02.453Z,9.08
2019-02-12T13:24:33.782Z,8.97
2019-02-12T13:27:05.110Z,9.62
2019-02-12T13:29:36.451Z,10.35
2019-02-12T13:32:08.555Z,9.35
2019-02-12T13:34:43.030Z,9.28
2019-02-12T13:37:14.081Z,9.57
2019-02-12T13:39:45.764Z,9.32
2019-02-12T13:42:17.409Z,8.46
2019-02-12T13:44:48.411Z,8.24
2019-02-12T13:47:20.088Z,8.08
2019-02-12T13:49:51.452Z,8.18
2019-02-12T13:52:23.514Z,8.03
2019-02-12T13:54:54.877Z,8.63
2019-02-12T13:57:25.653Z,8.67
2019-02-12T13:59:56.753Z,8.48
2019-02-12T14:02:28.216Z,8.29
2019-02-12T14:04:59.244Z,8.29
2019-02-12T14:07:30.808Z,8.76
2019-02-12T14:10:02.266Z,8.94
2019-02-12T14:12:33.656Z,8.43
2019-02-12T14:15:13.413Z,8.00
2019-02-12T14:17:45.026Z,8.62
2019-02-12T14:20:15.851Z,8.37
2019-02-12T14:22:47.221Z,8.36
2019-02-12T14:25:25.261Z,7.92
2019-02-12T14:28:12.597Z,8.22
2019-02-12T14:30:44.283Z,8.55
2019-02-12T14:33:16.144Z,8.34
2019-02-12T14:35:47.535Z,8.80
2019-02-12T14:38:19.202Z,9.26
2019-02-12T14:40:49.493Z,9.39
2019-02-12T14:43:20.809Z,9.36
2019-02-12T14:45:52.376Z,9.28
2019-02-12T14:48:23.834Z,9.11
2019-02-12T14:50:55.320Z,9.20
2019-02-12T14:53:27.785Z,8.77
2019-02-12T14:55:58.879Z,8.55
2019-02-12T14:58:37.330Z,9.04
2019-02-12T15:01:12.357Z,8.33
2019-02-12T15:03:44.081Z,8.14
2019-02-12T15:06:15.554Z,8.17
2019-02-12T15:08:47.142Z,8.36
2019-02-12T15:11:18.561Z,8.28
2019-02-12T15:13:49.582Z,8.09
2019-02-12T15:16:21.118Z,7.80
2019-02-12T15:18:55.828Z,7.74
2019-02-12T15:21:35.582Z,7.58
2019-02-12T15:24:07.930Z,7.41
2019-02-12T15:26:39.282Z,7.23
2019-02-12T15:29:10.275Z,7.25
2019-02-12T15:31:43.990Z,7.08
2019-02-12T15:34:14.271Z,7.07
2019-02-12T15:36:48.606Z,6.95
2019-02-12T15:39:19.519Z,7.05
2019-02-12T15:41:52.571Z,7.22
2019-02-12T15:44:26.090Z,7.14
2019-02-12T15:46:58.483Z,7.03
2019-02-12T15:49:29.846Z,6.94
2019-02-12T15:52:01.808Z,6.97
2019-02-12T15:54:33.119Z,7.10
2019-02-12T15:57:03.868Z,6.82
2019-02-12T15:59:54.165Z,7.00
2019-02-12T16:02:26.845Z,6.91
2019-02-12T16:04:57.983Z,7.03
2019-02-12T16:07:28.750Z,7.00
2019-02-12T16:10:00.671Z,6.78
2019-02-12T16:12:32.505Z,6.64
2019-02-12T16:15:04.432Z,6.20
2019-02-12T16:17:37.431Z,6.04
2019-02-12T16:20:10.179Z,5.85
2019-02-12T16:22:41.654Z,5.72
2019-02-12T16:25:12.338Z,5.51
2019-02-12T16:27:43.930Z,5.29
2019-02-12T16:30:17.425Z,5.22
2019-02-12T16:32:49.541Z,5.09
2019-02-12T16:35:25.901Z,4.98
2019-02-12T16:37:57.975Z,4.81
2019-02-12T16:40:39.018Z,4.55
2019-02-12T16:43:12.924Z,4.35
2019-02-12T16:46:10.302Z,4.21
2019-02-12T16:48:44.758Z,4.01
2019-02-12T16:51:19.729Z,3.80
2019-02-12T16:53:51.022Z,3.64
2019-02-12T16:56:22.464Z,3.53
2019-02-12T16:58:54.466Z,3.39
2019-02-12T17:01:25.859Z,3.25
2019-02-12T17:04:01.032Z,3.14
2019-02-12T17:06:40.619Z,3.14
2019-02-12T17:09:13.561Z,3.11
2019-02-12T17:11:44.913Z,3.00
2019-02-12T17:14:16.265Z,2.91
2019-02-12T17:16:48.166Z,2.78
2019-02-12T17:19:19.793Z,2.64
2019-02-12T17:21:51.555Z,2.54
2019-02-12T17:24:23.199Z,2.48
2019-02-12T17:26:54.609Z,2.43
2019-02-12T17:29:26.306Z,2.34
2019-02-12T17:31:58.187Z,2.29
2019-02-12T17:34:29.949Z,2.16
2019-02-12T17:37:01.639Z,2.04
2019-02-12T17:39:32.961Z,1.94
2019-02-12T17:42:05.057Z,1.86
2019-02-12T17:44:36.067Z,1.95
2019-02-12T17:47:07.483Z,1.95
2019-02-12T17:49:38.851Z,1.92
2019-02-12T17:52:09.594Z,1.82
2019-02-12T17:54:41.023Z,1.76
2019-02-12T17:57:11.762Z,1.75
2019-02-12T17:59:43.334Z,1.72
2019-02-12T18:02:15.152Z,1.74
2019-02-12T18:04:46.255Z,1.76
2019-02-12T18:07:17.863Z,1.80
2019-02-12T18:09:49.323Z,1.85
2019-02-12T18:12:21.005Z,1.82
2019-02-12T18:14:52.333Z,1.81
2019-02-12T18:17:23.707Z,1.85
2019-02-12T18:19:54.946Z,1.89
2019-02-12T18:22:25.646Z,1.93
2019-02-12T18:24:57.444Z,1.94
2019-02-12T18:27:28.601Z,1.95
2019-02-12T18:29:59.937Z,1.96
2019-02-12T18:32:31.666Z,1.95
2019-02-12T18:35:02.403Z,1.94
2019-02-12T18:37:33.711Z,1.96
2019-02-12T18:40:04.707Z,1.98
2019-02-12T18:42:37.388Z,1.96
2019-02-12T18:46:16.815Z,1.93
2019-02-12T18:48:48.167Z,2.02
2019-02-12T18:51:20.681Z,2.06
2019-02-12T18:54:00.812Z,2.09
2019-02-12T18:56:41.657Z,2.13
2019-02-12T18:59:11.058Z,2.19
2019-02-12T19:01:53.060Z,2.22
2019-02-12T19:04:26.438Z,2.28
2019-02-12T19:06:57.815Z,2.34
2019-02-12T19:09:29.572Z,2.34
2019-02-12T19:15:11.698Z,2.42
2019-02-12T19:17:44.672Z,2.44
2019-02-12T19:20:15.780Z,2.47
2019-02-12T19:22:49.232Z,2.39
2019-02-12T19:25:20.883Z,2.33
2019-02-12T19:27:51.593Z,2.22
2019-02-12T19:30:23.370Z,2.19
2019-02-12T19:32:54.389Z,2.15
2019-02-12T19:35:34.090Z,2.09
2019-02-12T19:38:05.330Z,1.99
2019-02-12T19:40:36.916Z,1.97
2019-02-12T19:43:07.990Z,1.94
2019-02-12T19:45:40.393Z,1.89
2019-02-12T19:48:11.413Z,1.82
2019-02-12T19:50:43.174Z,1.81
2019-02-12T19:53:19.914Z,1.81
2019-02-12T19:55:51.587Z,1.77
2019-02-12T19:58:23.325Z,1.73
2019-02-12T20:00:55.255Z,1.74
2019-02-12T20:03:26.495Z,1.73
2019-02-12T20:05:57.901Z,1.67
2019-02-12T20:08:29.194Z,1.59
2019-02-12T20:11:00.469Z,1.43
2019-02-12T20:13:31.799Z,1.31
2019-02-12T20:16:02.983Z,1.19
2019-02-12T20:18:34.960Z,1.15
2019-02-12T20:21:05.987Z,1.04
2019-02-12T20:23:37.032Z,0.87
2019-02-12T20:26:09.066Z,0.71
2019-02-12T20:28:41.149Z,0.66
2019-02-12T20:31:12.574Z,0.66
2019-02-12T20:33:44.492Z,0.71
2019-02-12T20:36:16.186Z,0.66
2019-02-12T20:38:48.143Z,0.58
2019-02-12T20:41:20.496Z,0.48
2019-02-12T20:43:52.013Z,0.43
2019-02-12T20:46:30.026Z,0.47
2019-02-12T20:49:01.994Z,0.45
2019-02-12T20:51:33.435Z,0.37
2019-02-12T20:54:04.988Z,0.29
2019-02-12T20:56:36.428Z,0.26
2019-02-12T20:59:07.479Z,0.17
2019-02-12T21:01:38.820Z,0.14
2019-02-12T21:04:10.137Z,0.08
2019-02-12T21:06:41.228Z,0.01
2019-02-12T21:09:12.399Z,-0.11
2019-02-12T21:11:43.119Z,-0.07
2019-02-12T21:14:14.545Z,-0.04
2019-02-12T21:16:45.900Z,-0.12
2019-02-12T21:19:20.047Z,-0.14
2019-02-12T21:22:05.667Z,-0.22
2019-02-12T21:24:37.163Z,-0.23
2019-02-12T21:27:09.047Z,-0.25
2019-02-12T21:29:41.044Z,-0.27
2019-02-12T21:32:12.911Z,-0.31
2019-02-12T21:34:44.299Z,-0.35
2019-02-12T21:37:15.671Z,-0.44
2019-02-12T21:39:46.600Z,-0.48
2019-02-12T21:42:18.641Z,-0.61
2019-02-12T21:44:50.396Z,-0.77
2019-02-12T21:47:21.702Z,-0.85
2019-02-12T21:49:53.082Z,-0.89
2019-02-12T21:52:24.148Z,-0.92
2019-02-12T21:54:54.816Z,-0.90
2019-02-12T21:57:37.558Z,-0.93
2019-02-12T22:00:11.329Z,-0.80
2019-02-12T22:02:42.337Z,-0.71
2019-02-12T22:05:16.133Z,-0.70
2019-02-12T22:07:48.394Z,-0.63
2019-02-12T22:10:26.956Z,-0.66
2019-02-12T22:12:59.097Z,-0.64
2019-02-12T22:15:37.324Z,-0.67
2019-02-12T22:18:24.108Z,-0.71
2019-02-12T22:21:07.503Z,-0.70
2019-02-12T22:23:42.981Z,-0.74
2019-02-12T22:29:39.189Z,-0.87
2019-02-12T22:32:18.988Z,-0.94
2019-02-12T22:34:56.757Z,-0.89
2019-02-12T22:37:33.837Z,-0.90
2019-02-12T22:40:37.972Z,-0.91
2019-02-12T22:43:08.740Z,-0.92
2019-02-12T22:45:40.766Z,-0.89
2019-02-12T22:48:11.993Z,-0.98
2019-02-12T22:50:42.740Z,-1.01
2019-02-12T22:53:21.737Z,-0.99
2019-02-12T22:56:00.492Z,-1.01
2019-02-12T22:58:34.014Z,-1.00
2019-02-12T23:01:09.990Z,-1.01
2019-02-12T23:03:40.813Z,-1.02
2019-02-12T23:06:21.187Z,-1.07
2019-02-12T23:08:52.901Z,-1.10
2019-02-12T23:11:30.860Z,-1.18
2019-02-12T23:14:03.136Z,-1.31
2019-02-12T23:16:49.558Z,-1.38
2019-02-12T23:19:20.293Z,-1.37
2019-02-12T23:21:58.313Z,-1.35
2019-02-12T23:24:52.890Z,-1.29
2019-02-12T23:27:24.945Z,-1.29
2019-02-12T23:29:56.524Z,-1.26
2019-02-12T23:32:27.983Z,-1.26
2019-02-12T23:34:59.310Z,-1.38
2019-02-12T23:37:31.175Z,-1.38
2019-02-12T23:40:03.423Z,-1.37
2019-02-12T23:42:35.051Z,-1.36
2019-02-12T23:45:38.806Z,-1.36
2019-02-12T23:48:10.302Z,-1.28
2019-02-12T23:50:45.904Z,-1.40
2019-02-12T23:53:17.827Z,-1.49
2019-02-12T23:55:50.688Z,-1.57
2019-02-12T23:58:21.426Z,-1.47
